createdAt,value
2023-01-27T00:02:23.813Z,36.80
2023-01-27T00:07:23.719Z,38.20
2023-01-27T00:12:23.605Z,34.10
2023-01-27T00:17:23.589Z,35.00
2023-01-27T00:22:23.640Z,33.10
2023-01-27T00:27:23.447Z,33.10
2023-01-27T00:32:23.353Z,34.90
2023-01-27T00:37:23.338Z,38.10
2023-01-27T00:42:23.246Z,34.60
2023-01-27T00:47:23.193Z,40.20
2023-01-27T00:52:23.102Z,37.40
2023-01-27T00:57:23.024Z,35.20
2023-01-27T01:02:23.077Z,40.00
2023-01-27T01:07:22.954Z,35.90
2023-01-27T01:12:22.928Z,35.20
2023-01-27T01:17:22.853Z,38.30
2023-01-27T01:22:22.737Z,32.20
2023-01-27T01:27:22.779Z,35.40
2023-01-27T01:32:22.659Z,34.90
2023-01-27T01:37:22.584Z,35.00
2023-01-27T01:42:22.481Z,31.60
2023-01-27T01:47:22.396Z,27.80
2023-01-27T01:52:22.337Z,28.10
2023-01-27T01:57:23.302Z,29.10
2023-01-27T02:02:23.265Z,29.00
2023-01-27T02:07:22.116Z,31.30
2023-01-27T02:12:22.127Z,30.20
2023-01-27T02:17:22.013Z,30.20
2023-01-27T02:22:21.957Z,29.60
2023-01-27T02:27:21.917Z,29.50
2023-01-27T02:32:21.823Z,28.40
2023-01-27T02:37:21.774Z,34.80
2023-01-27T02:42:21.690Z,33.40
2023-01-27T02:47:21.685Z,33.80
2023-01-27T02:52:21.574Z,35.70
2023-01-27T02:57:21.491Z,33.00
2023-01-27T03:02:21.462Z,35.50
2023-01-27T03:07:21.497Z,33.80
2023-01-27T03:12:21.302Z,36.10
2023-01-27T03:17:21.231Z,40.10
2023-01-27T03:22:21.120Z,40.90
2023-01-27T03:27:21.070Z,39.30
2023-01-27T03:32:21.031Z,35.60
2023-01-27T03:37:20.943Z,36.60
2023-01-27T03:42:20.903Z,33.00
2023-01-27T03:47:20.809Z,39.50
2023-01-27T03:52:20.745Z,38.80
2023-01-27T03:57:20.666Z,34.10
2023-01-27T04:02:20.638Z,36.70
2023-01-27T04:07:20.562Z,38.70
2023-01-27T04:12:20.480Z,38.60
2023-01-27T04:17:20.426Z,31.50
2023-01-27T04:22:20.421Z,34.30
2023-01-27T04:27:20.311Z,33.20
2023-01-27T04:32:20.211Z,36.30
2023-01-27T04:37:20.146Z,32.30
2023-01-27T04:42:20.118Z,35.80
2023-01-27T04:47:20.027Z,33.00
2023-01-27T04:52:19.972Z,33.80
2023-01-27T04:57:19.901Z,30.70
2023-01-27T05:02:19.840Z,33.80
2023-01-27T05:07:19.791Z,30.30
2023-01-27T05:12:19.707Z,33.20
2023-01-27T05:17:19.713Z,32.20
2023-01-27T05:22:19.588Z,31.70
2023-01-27T05:27:19.529Z,34.10
2023-01-27T05:32:19.480Z,35.90
2023-01-27T05:37:19.375Z,35.60
2023-01-27T05:42:19.381Z,38.90
2023-01-27T05:47:19.242Z,37.20
2023-01-27T05:52:19.189Z,34.30
2023-01-27T05:57:19.112Z,33.90
2023-01-27T06:02:19.574Z,35.10
2023-01-27T06:07:18.958Z,36.80
2023-01-27T06:12:18.919Z,35.30
2023-01-27T06:17:18.844Z,34.40
2023-01-27T06:22:18.806Z,34.80
2023-01-27T06:27:19.002Z,35.90
2023-01-27T06:32:18.635Z,37.20
2023-01-27T06:37:18.613Z,34.70
2023-01-27T06:42:18.562Z,31.80
2023-01-27T06:47:18.470Z,31.70
2023-01-27T06:52:18.374Z,33.40
2023-01-27T06:57:18.347Z,30.70
2023-01-27T07:02:18.318Z,30.00
2023-01-27T07:07:18.204Z,26.50
2023-01-27T07:12:18.146Z,24.90
2023-01-27T07:17:18.080Z,25.10
2023-01-27T07:22:18.034Z,23.20
2023-01-27T07:27:17.966Z,24.00
2023-01-27T07:32:17.870Z,26.50
2023-01-27T07:37:17.801Z,28.50
2023-01-27T07:42:17.720Z,28.10
2023-01-27T07:47:17.705Z,27.00
2023-01-27T07:52:17.613Z,29.40
2023-01-27T07:57:17.539Z,28.20
2023-01-27T08:02:17.546Z,29.00
2023-01-27T08:07:17.414Z,29.80
2023-01-27T08:12:17.339Z,27.40
2023-01-27T08:17:17.281Z,28.00
2023-01-27T08:22:17.202Z,30.60
2023-01-27T08:27:17.141Z,32.20
2023-01-27T08:32:17.073Z,36.40
2023-01-27T08:37:17.001Z,28.30
2023-01-27T08:42:16.978Z,25.70
2023-01-27T08:47:16.901Z,23.50
2023-01-27T08:52:16.811Z,21.50
2023-01-27T08:57:16.788Z,18.80
2023-01-27T09:02:16.691Z,19.90
2023-01-27T09:07:16.647Z,26.60
2023-01-27T09:12:16.556Z,24.80
2023-01-27T09:17:16.524Z,22.00
2023-01-27T09:22:16.450Z,22.20
2023-01-27T09:27:16.432Z,24.00
2023-01-27T09:32:16.298Z,20.90
2023-01-27T09:37:16.238Z,22.60
2023-01-27T09:42:16.199Z,21.30
2023-01-27T09:47:16.137Z,24.30
2023-01-27T09:52:16.038Z,20.60
2023-01-27T09:57:15.982Z,22.50
2023-01-27T10:02:15.941Z,20.70
2023-01-27T10:07:15.842Z,23.10
2023-01-27T10:12:15.782Z,22.70
2023-01-27T10:17:15.784Z,23.50
2023-01-27T10:22:15.717Z,26.00
2023-01-27T10:27:15.610Z,23.80
2023-01-27T10:32:15.531Z,27.10
2023-01-27T10:37:15.485Z,25.10
2023-01-27T10:42:15.436Z,32.70
2023-01-27T10:47:15.333Z,29.30
2023-01-27T10:52:15.339Z,31.70
2023-01-27T10:57:15.239Z,28.50
2023-01-27T11:02:15.186Z,31.50
2023-01-27T11:07:15.078Z,40.40
2023-01-27T11:12:15.021Z,30.40
2023-01-27T11:17:14.996Z,31.50
2023-01-27T11:22:14.927Z,30.00
2023-01-27T11:27:14.858Z,33.60
2023-01-27T11:32:14.850Z,31.10
2023-01-27T11:37:14.716Z,34.80
2023-01-27T11:42:14.666Z,38.00
2023-01-27T11:47:14.548Z,36.80
2023-01-27T11:52:14.559Z,37.90
2023-01-27T11:57:14.463Z,38.60
2023-01-27T12:02:14.379Z,40.60
2023-01-27T12:07:14.332Z,39.50
2023-01-27T12:12:14.280Z,41.70
2023-01-27T12:17:14.484Z,39.10
2023-01-27T12:22:14.106Z,34.90
2023-01-27T12:27:14.053Z,37.70
2023-01-27T12:32:14.001Z,34.60
2023-01-27T12:37:13.897Z,35.60
2023-01-27T12:42:17.827Z,35.60
2023-01-27T12:47:13.777Z,35.20
2023-01-27T12:52:13.686Z,38.70
2023-01-27T12:57:13.683Z,35.60
2023-01-27T13:02:13.678Z,37.00
2023-01-27T13:07:13.512Z,38.70
2023-01-27T13:12:13.495Z,33.70
2023-01-27T13:17:13.423Z,33.60
2023-01-27T13:22:13.308Z,29.80
2023-01-27T13:27:13.251Z,28.80
2023-01-27T13:32:13.289Z,31.90
2023-01-27T13:37:13.108Z,31.00
2023-01-27T13:42:13.057Z,30.70
2023-01-27T13:47:13.027Z,30.90
2023-01-27T13:52:12.999Z,31.30
2023-01-27T13:57:12.856Z,24.40
2023-01-27T14:02:12.786Z,25.40
2023-01-27T14:07:12.698Z,25.60
2023-01-27T14:12:12.654Z,26.20
2023-01-27T14:17:12.577Z,24.10
2023-01-27T14:22:12.542Z,23.10
2023-01-27T14:27:12.444Z,21.80
2023-01-27T14:32:12.368Z,23.30
2023-01-27T14:37:12.337Z,24.10
2023-01-27T14:42:12.265Z,24.80
2023-01-27T14:47:12.315Z,23.30
2023-01-27T14:52:12.155Z,23.80
2023-01-27T14:57:12.169Z,21.30
2023-01-27T15:02:12.036Z,24.50
2023-01-27T15:07:11.932Z,22.70
2023-01-27T15:12:11.898Z,21.80
2023-01-27T15:17:11.791Z,23.80
2023-01-27T15:22:11.731Z,24.50
2023-01-27T15:27:11.684Z,27.00
2023-01-27T15:32:11.680Z,24.20
2023-01-27T15:37:11.548Z,23.90
2023-01-27T15:42:11.485Z,19.90
2023-01-27T15:47:11.429Z,24.70
2023-01-27T15:52:11.339Z,22.30
2023-01-27T15:57:11.274Z,21.50
2023-01-27T16:02:11.272Z,22.10
2023-01-27T16:07:11.176Z,23.10
2023-01-27T16:12:11.107Z,22.60
2023-01-27T16:17:11.049Z,23.20
2023-01-27T16:22:10.960Z,24.00
2023-01-27T16:27:10.867Z,22.70
2023-01-27T16:32:10.936Z,26.30
2023-01-27T16:37:11.021Z,23.50
2023-01-27T16:42:10.681Z,22.80
2023-01-27T16:47:16.541Z,19.70
2023-01-27T16:52:11.585Z,16.40
2023-01-27T16:57:10.562Z,17.40
2023-01-27T17:02:10.455Z,14.00
2023-01-27T17:07:12.067Z,12.90
2023-01-27T17:12:10.330Z,18.30
2023-01-27T17:17:10.264Z,18.20
2023-01-27T17:22:10.176Z,17.90
2023-01-27T17:27:10.132Z,19.50
2023-01-27T17:32:10.208Z,21.50
2023-01-27T17:37:09.982Z,22.60
2023-01-27T17:42:09.953Z,25.90
2023-01-27T17:47:09.883Z,26.50
2023-01-27T17:52:09.765Z,27.00
2023-01-27T17:57:09.769Z,27.30
2023-01-27T18:02:09.652Z,29.60
2023-01-27T18:07:09.659Z,31.40
2023-01-27T18:12:09.548Z,38.30
2023-01-27T18:17:09.639Z,37.70
2023-01-27T18:22:10.330Z,31.60
2023-01-27T18:27:09.596Z,37.10
2023-01-27T18:32:09.288Z,35.20
2023-01-27T18:37:09.209Z,33.90
2023-01-27T18:42:09.121Z,36.90
2023-01-27T18:47:09.025Z,35.60
2023-01-27T18:52:08.988Z,37.30
2023-01-27T18:57:08.932Z,36.20
2023-01-27T19:02:08.899Z,37.10
2023-01-27T19:07:08.907Z,37.90
2023-01-27T19:12:08.849Z,37.00
2023-01-27T19:17:08.681Z,40.50
2023-01-27T19:22:08.614Z,38.40
2023-01-27T19:27:08.821Z,38.40
2023-01-27T19:32:08.499Z,35.50
2023-01-27T19:37:08.713Z,34.60
2023-01-27T19:42:09.096Z,37.50
2023-01-27T19:47:10.537Z,38.40
2023-01-27T19:52:08.231Z,41.90
2023-01-27T19:57:08.446Z,36.70
2023-01-27T20:02:09.246Z,38.90
2023-01-27T20:07:08.650Z,41.90
2023-01-27T20:12:09.831Z,41.90
2023-01-27T20:17:08.096Z,43.40
2023-01-27T20:22:07.838Z,42.50
2023-01-27T20:27:07.974Z,45.40
2023-01-27T20:32:07.727Z,50.90
2023-01-27T20:37:07.731Z,48.70
2023-01-27T20:42:07.561Z,49.70
2023-01-27T20:47:07.643Z,52.50
2023-01-27T20:52:07.443Z,54.30
2023-01-27T20:57:07.374Z,53.10
2023-01-27T21:02:07.362Z,50.90
2023-01-27T21:07:07.211Z,48.30
2023-01-27T21:12:07.190Z,48.40
2023-01-27T21:17:07.094Z,48.90
2023-01-27T21:22:07.024Z,44.50
2023-01-27T21:27:06.949Z,46.60
2023-01-27T21:32:06.929Z,43.10
2023-01-27T21:37:08.199Z,45.10
2023-01-27T21:42:06.780Z,44.10
2023-01-27T21:47:06.719Z,47.20
2023-01-27T21:52:06.928Z,41.20
2023-01-27T21:57:06.611Z,39.80
2023-01-27T22:02:06.497Z,43.00
2023-01-27T22:07:06.464Z,42.50
2023-01-27T22:12:06.424Z,46.80
2023-01-27T22:17:06.368Z,50.20
2023-01-27T22:22:06.322Z,45.60
2023-01-27T22:27:06.248Z,47.60
2023-01-27T22:32:06.278Z,44.30
2023-01-27T22:37:06.183Z,45.30
2023-01-27T22:42:06.012Z,46.70
2023-01-27T22:47:05.974Z,49.10
2023-01-27T22:52:05.935Z,40.20
2023-01-27T22:57:05.886Z,42.90
2023-01-27T23:02:06.187Z,42.30
2023-01-27T23:07:05.773Z,36.30
2023-01-27T23:12:05.628Z,42.20
2023-01-27T23:17:05.572Z,44.80
2023-01-27T23:22:05.476Z,44.10
2023-01-27T23:27:05.408Z,44.20
2023-01-27T23:32:05.355Z,41.60
2023-01-27T23:37:05.260Z,39.10
2023-01-27T23:42:05.217Z,41.00
2023-01-27T23:47:05.170Z,35.80
2023-01-27T23:52:05.094Z,30.10
2023-01-27T23:57:05.064Z,28.60
